Time;durP1;ratioP1;P1;durP2;ratioP2;P2;SDS_P1;SDS_P2;PMS_P1;PMS_P2;Temp;Humidity;BMP_temperature;BMP_pressure;BME280_temperature;BME280_humidity;BME280_pressure;Samples;Min_cycle;Max_cycle;Signal;HPM_P1;HPM_P2
2022/01/30 00:00:00;;;;;;;10.03;3.07;;;9.60;99.90;;;;;;5063237;28;20224;-70
2022/01/30 00:02:28;;;;;;;13.07;3.00;;;9.60;99.90;;;;;;5063800;28;20190;-69
2022/01/30 00:04:55;;;;;;;17.63;3.07;;;9.60;99.90;;;;;;5063720;28;20724;-71
2022/01/30 00:07:21;;;;;;;13.77;3.37;;;9.70;99.90;;;;;;5064105;28;20202;-69
2022/01/30 00:09:49;;;;;;;13.37;2.60;;;9.70;99.90;;;;;;5059224;28;20203;-69
2022/01/30 00:12:19;;;;;;;10.30;2.70;;;9.60;99.90;;;;;;5060722;28;20205;-71
2022/01/30 00:14:52;;;;;;;10.60;2.37;;;9.70;99.90;;;;;;5057355;28;20961;-71
2022/01/30 00:17:23;;;;;;;8.67;2.77;;;9.70;99.90;;;;;;5055917;28;20202;-72
2022/01/30 00:20:02;;;;;;;10.57;2.80;;;9.70;99.90;;;;;;5062834;28;20198;-67
2022/01/30 00:25:01;;;;;;;11.07;2.40;;;9.60;99.90;;;;;;5064287;28;20222;-67
2022/01/30 00:27:31;;;;;;;8.77;2.40;;;9.60;99.90;;;;;;5054501;28;20282;-67
2022/01/30 00:29:58;;;;;;;12.47;3.00;;;9.60;99.90;;;;;;5059373;28;20213;-67
2022/01/30 00:32:25;;;;;;;12.13;2.60;;;9.60;99.90;;;;;;5062366;28;20206;-67
2022/01/30 00:35:12;;;;;;;8.80;2.40;;;9.50;99.90;;;;;;5060362;28;20221;-68
2022/01/30 00:37:42;;;;;;;7.33;2.60;;;9.50;99.90;;;;;;5059582;28;20202;-68
2022/01/30 00:40:28;;;;;;;12.27;2.67;;;9.40;99.90;;;;;;5059994;28;20198;-68
2022/01/30 00:42:56;;;;;;;14.50;2.53;;;9.40;99.90;;;;;;5059738;28;20253;-69
2022/01/30 00:45:23;;;;;;;11.60;3.13;;;9.50;99.90;;;;;;5059917;28;20226;-68
2022/01/30 00:47:50;;;;;;;14.57;2.70;;;9.40;99.90;;;;;;5055319;28;20445;-68
2022/01/30 00:50:19;;;;;;;11.70;2.50;;;9.50;99.90;;;;;;5058535;28;20220;-69
2022/01/30 00:52:53;;;;;;;14.40;3.53;;;9.40;99.90;;;;;;5061912;28;20205;-68
2022/01/30 00:55:24;;;;;;;16.83;3.00;;;9.50;99.90;;;;;;5059339;28;20218;-68
2022/01/30 00:57:55;;;;;;;13.13;3.00;;;9.40;99.90;;;;;;5063478;28;20208;-68
2022/01/30 01:00:36;;;;;;;8.73;2.70;;;9.50;99.90;;;;;;5010486;28;20203;-70
2022/01/30 01:03:04;;;;;;;11.00;2.80;;;9.50;99.90;;;;;;5017644;28;20199;-70
2022/01/30 01:05:34;;;;;;;7.67;2.40;;;9.40;99.90;;;;;;5019447;28;20662;-70
2022/01/30 01:08:10;;;;;;;14.57;3.10;;;9.40;99.90;;;;;;5017457;28;20203;-70
2022/01/30 01:10:43;;;;;;;14.17;3.13;;;9.40;99.90;;;;;;5021147;28;20191;-71
2022/01/30 01:23:57;;;;;;;9.47;2.83;;;9.40;99.90;;;;;;5016035;28;20697;-72
2022/01/30 01:26:25;;;;;;;11.13;2.83;;;9.50;99.90;;;;;;5006042;28;20223;-72
2022/01/30 01:28:53;;;;;;;10.07;2.80;;;9.40;99.90;;;;;;5015350;28;20199;-73
2022/01/30 01:31:20;;;;;;;8.83;2.27;;;9.40;99.90;;;;;;5013102;28;20207;-71
2022/01/30 01:34:02;;;;;;;13.37;2.70;;;9.40;99.90;;;;;;5003122;28;20709;-70
2022/01/30 01:36:29;;;;;;;8.70;3.10;;;9.40;99.90;;;;;;5004173;28;20219;-71
2022/01/30 01:38:56;;;;;;;5.73;2.50;;;9.40;99.90;;;;;;5055479;28;20198;-71
2022/01/30 01:41:25;;;;;;;10.43;2.50;;;9.30;99.90;;;;;;5064780;28;20195;-70
2022/01/30 01:43:52;;;;;;;11.07;2.67;;;9.40;99.90;;;;;;5064720;28;20226;-70
2022/01/30 01:46:27;;;;;;;7.67;2.30;;;9.40;99.90;;;;;;5060155;28;20202;-71
2022/01/30 01:48:54;;;;;;;10.93;2.83;;;9.30;99.90;;;;;;5050937;28;20198;-70
2022/01/30 01:51:23;;;;;;;16.10;2.67;;;9.30;99.90;;;;;;5053767;28;20226;-71
2022/01/30 01:53:53;;;;;;;13.47;3.03;;;9.20;99.90;;;;;;5063230;28;20212;-71
2022/01/30 01:56:20;;;;;;;11.90;2.50;;;9.10;99.90;;;;;;5061414;28;20247;-71
2022/01/30 01:58:46;;;;;;;10.37;2.67;;;9.10;99.90;;;;;;5061707;28;20309;-71
2022/01/30 02:01:13;;;;;;;10.70;2.90;;;9.10;99.90;;;;;;5057950;28;20194;-71
2022/01/30 02:03:41;;;;;;;9.53;2.83;;;9.00;99.90;;;;;;5058115;28;20268;-71
2022/01/30 02:06:12;;;;;;;7.83;2.53;;;9.00;99.90;;;;;;5065560;28;20223;-71
2022/01/30 02:27:37;;;;;;;9.53;2.40;;;8.70;99.90;;;;;;5054388;28;20194;-72
2022/01/30 02:30:10;;;;;;;12.00;2.63;;;8.70;99.90;;;;;;5061527;28;20200;-72
2022/01/30 02:32:37;;;;;;;10.17;2.50;;;8.70;99.90;;;;;;5070921;28;20202;-70
2022/01/30 02:35:04;;;;;;;8.20;2.70;;;8.70;99.90;;;;;;5061368;28;20622;-71
2022/01/30 02:37:31;;;;;;;8.37;2.93;;;8.70;99.90;;;;;;5060759;28;20209;-70
2022/01/30 02:39:58;;;;;;;10.10;2.43;;;8.60;99.90;;;;;;5062852;28;20286;-71
2022/01/30 02:42:29;;;;;;;8.53;2.60;;;8.50;99.90;;;;;;5057169;28;20567;-72
2022/01/30 02:44:59;;;;;;;12.03;2.90;;;8.50;99.90;;;;;;5058687;28;20216;-70
2022/01/30 02:50:21;;;;;;;13.03;2.80;;;8.60;99.90;;;;;;5050232;28;20198;-73
2022/01/30 02:52:56;;;;;;;12.47;2.60;;;8.60;99.90;;;;;;5062138;28;20199;-71
2022/01/30 02:55:24;;;;;;;9.70;2.50;;;8.50;99.90;;;;;;5061225;28;20405;-70
2022/01/30 02:57:50;;;;;;;12.77;2.60;;;8.50;99.90;;;;;;5063230;28;20198;-70
2022/01/30 03:00:17;;;;;;;9.33;2.50;;;8.50;99.90;;;;;;5059505;28;20199;-72
2022/01/30 03:02:44;;;;;;;7.80;2.37;;;8.50;99.90;;;;;;5078364;28;20202;-71
2022/01/30 03:05:11;;;;;;;13.33;3.10;;;8.50;99.90;;;;;;5069293;28;20235;-70
2022/01/30 03:07:37;;;;;;;16.00;2.97;;;8.30;99.90;;;;;;5061355;28;20194;-71
2022/01/30 03:10:05;;;;;;;14.97;3.10;;;8.20;99.90;;;;;;5068507;28;20188;-71
2022/01/30 03:12:31;;;;;;;11.37;2.73;;;8.20;99.90;;;;;;5064995;28;20204;-70
2022/01/30 03:14:58;;;;;;;9.07;2.27;;;8.20;99.90;;;;;;5081069;28;20221;-70
2022/01/30 03:17:24;;;;;;;10.40;2.33;;;8.10;99.90;;;;;;5062621;28;20259;-70
2022/01/30 03:19:51;;;;;;;8.53;2.67;;;8.10;99.90;;;;;;5067384;28;20198;-71
2022/01/30 03:22:18;;;;;;;8.77;2.30;;;8.10;99.90;;;;;;5067138;28;20667;-72
2022/01/30 03:24:45;;;;;;;12.27;2.87;;;8.10;99.90;;;;;;5060301;28;20829;-71
2022/01/30 03:27:13;;;;;;;14.70;3.00;;;8.00;99.90;;;;;;5066523;28;20315;-70
2022/01/30 03:29:41;;;;;;;11.90;2.20;;;8.00;99.90;;;;;;5068429;28;20203;-70
2022/01/30 03:32:08;;;;;;;13.23;2.53;;;8.00;99.90;;;;;;5070004;28;20208;-70
2022/01/30 03:34:34;;;;;;;8.03;2.13;;;7.90;99.90;;;;;;5065906;28;20237;-70
2022/01/30 03:37:01;;;;;;;11.27;2.53;;;7.80;99.90;;;;;;5066286;28;20226;-69
2022/01/30 03:39:28;;;;;;;12.30;2.43;;;7.90;99.90;;;;;;5066173;28;20252;-71
2022/01/30 03:41:54;;;;;;;11.73;2.67;;;8.00;99.90;;;;;;5066107;28;20201;-72
2022/01/30 03:44:21;;;;;;;10.87;2.53;;;8.00;99.90;;;;;;5060845;28;20229;-70
2022/01/30 03:46:48;;;;;;;10.67;2.87;;;7.90;99.90;;;;;;5069018;28;20246;-71
2022/01/30 03:49:23;;;;;;;9.27;2.23;;;7.90;99.90;;;;;;5062455;28;20217;-70
2022/01/30 03:51:49;;;;;;;16.37;2.30;;;7.90;99.90;;;;;;5069342;28;20194;-72
2022/01/30 03:54:16;;;;;;;10.70;2.40;;;7.90;99.90;;;;;;5068440;28;20210;-70
2022/01/30 03:56:43;;;;;;;9.53;2.03;;;7.80;99.90;;;;;;5062725;28;20229;-73
2022/01/30 03:59:09;;;;;;;12.43;2.50;;;7.80;99.90;;;;;;5061389;28;20591;-70
2022/01/30 04:01:37;;;;;;;14.00;2.67;;;7.80;99.90;;;;;;5067374;28;20201;-72
2022/01/30 04:04:04;;;;;;;12.23;3.03;;;7.70;99.90;;;;;;5063352;28;20222;-68
2022/01/30 04:06:31;;;;;;;12.30;2.50;;;7.70;99.90;;;;;;5058109;28;20243;-68
2022/01/30 04:08:58;;;;;;;12.87;2.57;;;7.70;99.90;;;;;;5067868;28;20214;-68
2022/01/30 04:11:25;;;;;;;10.10;2.30;;;7.80;99.90;;;;;;5065708;28;20206;-68
2022/01/30 04:13:52;;;;;;;8.57;2.10;;;7.60;99.90;;;;;;5064218;28;20218;-68
2022/01/30 04:16:19;;;;;;;12.57;2.77;;;7.70;99.90;;;;;;5061788;28;20223;-68
2022/01/30 04:18:45;;;;;;;18.87;2.77;;;7.60;99.90;;;;;;5061476;28;20193;-68
2022/01/30 04:21:12;;;;;;;10.23;2.53;;;7.70;99.90;;;;;;5061576;28;20257;-68
2022/01/30 04:23:39;;;;;;;10.70;2.13;;;7.70;99.90;;;;;;5067486;28;20201;-68
2022/01/30 04:26:06;;;;;;;10.50;2.67;;;7.70;99.90;;;;;;5063398;28;20564;-68
2022/01/30 04:28:33;;;;;;;16.73;2.70;;;7.60;99.90;;;;;;5059951;28;20224;-68
2022/01/30 04:31:01;;;;;;;12.17;2.57;;;7.50;99.90;;;;;;5063305;28;20198;-68
2022/01/30 04:33:28;;;;;;;15.83;2.70;;;7.60;99.90;;;;;;5063375;28;20735;-68
2022/01/30 04:35:56;;;;;;;10.87;2.70;;;7.50;99.90;;;;;;5058358;28;20750;-71
2022/01/30 04:38:33;;;;;;;11.27;2.30;;;7.50;99.90;;;;;;5060784;28;20607;-70
2022/01/30 04:57:49;;;;;;;12.63;2.57;;;7.50;99.90;;;;;;5058967;28;20715;-72
2022/01/30 05:00:34;;;;;;;11.80;2.43;;;7.40;99.90;;;;;;5057375;28;20600;-70
2022/01/30 05:05:51;;;;;;;7.97;2.47;;;7.40;99.90;;;;;;5066476;28;20400;-70
2022/01/30 05:08:18;;;;;;;12.13;2.30;;;7.50;99.90;;;;;;5060422;28;20203;-71
2022/01/30 05:10:45;;;;;;;11.10;2.10;;;7.30;99.90;;;;;;5064154;28;20646;-70
2022/01/30 05:13:16;;;;;;;6.80;1.83;;;7.20;99.90;;;;;;5062835;28;20195;-70
2022/01/30 05:15:44;;;;;;;12.60;2.70;;;7.20;99.90;;;;;;5064476;28;20303;-72
2022/01/30 05:18:16;;;;;;;9.13;2.50;;;7.20;99.90;;;;;;5060014;28;20195;-70
2022/01/30 05:20:43;;;;;;;8.93;2.17;;;7.20;99.90;;;;;;5062647;28;20262;-70
2022/01/30 05:23:09;;;;;;;11.47;2.17;;;7.20;99.90;;;;;;5065886;28;20202;-71
2022/01/30 05:25:37;;;;;;;12.70;2.33;;;7.10;99.90;;;;;;5061803;28;20218;-68
2022/01/30 05:28:06;;;;;;;12.73;2.23;;;7.10;99.90;;;;;;5057949;28;20209;-68
2022/01/30 05:30:35;;;;;;;10.43;2.23;;;7.20;99.90;;;;;;5059975;28;20614;-68
2022/01/30 05:33:02;;;;;;;12.83;2.57;;;7.10;99.90;;;;;;5066223;28;20194;-68
2022/01/30 05:35:29;;;;;;;7.37;2.27;;;7.10;99.90;;;;;;5060723;28;20824;-68
2022/01/30 05:37:56;;;;;;;12.40;2.93;;;7.10;99.90;;;;;;5065158;28;20213;-72
2022/01/30 05:40:24;;;;;;;11.07;2.40;;;7.00;99.90;;;;;;5060316;28;20203;-70
2022/01/30 05:42:50;;;;;;;12.87;2.20;;;7.00;99.90;;;;;;5065814;28;20243;-71
2022/01/30 05:45:25;;;;;;;9.27;2.10;;;7.00;99.90;;;;;;5061207;28;20717;-72
2022/01/30 05:47:58;;;;;;;13.43;2.30;;;7.00;99.90;;;;;;5059741;28;20194;-71
2022/01/30 05:50:25;;;;;;;15.20;2.93;;;7.00;99.90;;;;;;5060881;28;20223;-70
2022/01/30 05:52:52;;;;;;;9.03;2.30;;;7.00;99.90;;;;;;5063480;28;20201;-71
2022/01/30 05:55:19;;;;;;;11.70;2.37;;;7.10;99.90;;;;;;5064375;28;20223;-70
2022/01/30 05:57:47;;;;;;;12.40;2.63;;;7.00;99.90;;;;;;5055861;28;20721;-70
2022/01/30 06:00:15;;;;;;;10.13;2.20;;;7.00;99.90;;;;;;5063629;28;20201;-70
2022/01/30 06:02:45;;;;;;;13.13;2.53;;;7.10;99.90;;;;;;5058763;28;20194;-71
2022/01/30 06:05:15;;;;;;;12.80;2.70;;;7.10;99.90;;;;;;5066083;28;20214;-69
2022/01/30 06:07:52;;;;;;;9.23;2.30;;;7.20;99.90;;;;;;5064451;28;20210;-71
2022/01/30 06:10:24;;;;;;;12.93;2.40;;;7.10;99.90;;;;;;5065412;28;20189;-70
2022/01/30 06:12:51;;;;;;;10.63;2.20;;;7.10;99.90;;;;;;5064206;28;20192;-67
2022/01/30 06:15:19;;;;;;;12.53;2.30;;;7.10;99.90;;;;;;5062882;28;20221;-67
2022/01/30 06:17:45;;;;;;;8.97;2.30;;;7.10;99.90;;;;;;5059949;28;20219;-68
2022/01/30 06:20:12;;;;;;;17.33;2.40;;;7.10;99.90;;;;;;5058134;28;20200;-68
2022/01/30 06:22:40;;;;;;;10.70;2.23;;;7.10;99.90;;;;;;5063423;28;20188;-68
2022/01/30 06:25:12;;;;;;;14.37;2.13;;;7.00;99.90;;;;;;5062454;28;20209;-68
2022/01/30 06:27:39;;;;;;;13.93;2.87;;;7.10;99.90;;;;;;5062561;28;20208;-68
2022/01/30 06:30:08;;;;;;;12.07;2.00;;;7.10;99.90;;;;;;5065101;28;20194;-68
2022/01/30 06:32:35;;;;;;;6.37;2.33;;;7.10;99.90;;;;;;5059170;28;20557;-68
2022/01/30 06:35:05;;;;;;;14.73;2.77;;;7.10;99.90;;;;;;5059250;28;20695;-68
2022/01/30 06:37:32;;;;;;;13.47;2.23;;;7.00;99.90;;;;;;5063340;28;20219;-68
2022/01/30 06:39:59;;;;;;;8.90;2.30;;;7.20;99.90;;;;;;5070250;28;20190;-68
2022/01/30 06:42:29;;;;;;;12.47;2.07;;;7.20;99.90;;;;;;5060132;28;20198;-68
2022/01/30 06:44:56;;;;;;;13.57;2.00;;;7.20;99.90;;;;;;5068307;28;20227;-68
2022/01/30 06:47:23;;;;;;;15.77;2.13;;;7.10;99.90;;;;;;5065803;28;20203;-68
2022/01/30 06:49:50;;;;;;;13.60;1.83;;;7.10;99.90;;;;;;5066601;28;20231;-68
2022/01/30 06:52:17;;;;;;;14.17;2.10;;;7.10;99.90;;;;;;5072557;28;20193;-68
2022/01/30 06:54:43;;;;;;;12.30;2.57;;;7.10;99.90;;;;;;5068687;28;20679;-68
2022/01/30 06:57:10;;;;;;;9.27;1.80;;;7.10;99.90;;;;;;5066891;28;20218;-68
2022/01/30 06:59:37;;;;;;;8.37;2.10;;;7.20;99.90;;;;;;5066446;28;20665;-68
2022/01/30 07:02:06;;;;;;;12.67;2.50;;;7.10;99.90;;;;;;5053679;28;20193;-68
2022/01/30 07:04:33;;;;;;;9.37;2.17;;;7.10;99.90;;;;;;5066673;28;20298;-68
2022/01/30 07:07:03;;;;;;;11.70;2.77;;;7.00;99.90;;;;;;5067676;28;20195;-68
2022/01/30 07:09:31;;;;;;;9.70;2.47;;;7.00;99.90;;;;;;5067401;28;20198;-69
2022/01/30 07:11:58;;;;;;;9.20;2.00;;;7.00;99.90;;;;;;5064314;28;20203;-68
2022/01/30 07:14:25;;;;;;;9.27;2.03;;;7.00;99.90;;;;;;5065564;28;20227;-68
2022/01/30 07:16:51;;;;;;;14.40;2.93;;;7.00;99.90;;;;;;5062079;28;20222;-68
2022/01/30 07:19:18;;;;;;;13.37;3.33;;;7.00;99.90;;;;;;5066832;28;20194;-68
2022/01/30 07:21:45;;;;;;;9.93;2.00;;;7.10;99.90;;;;;;5068455;28;20563;-68
2022/01/30 07:24:12;;;;;;;13.80;1.97;;;7.10;99.90;;;;;;5063877;28;20430;-68
2022/01/30 07:26:38;;;;;;;6.30;1.90;;;7.10;99.90;;;;;;5057144;28;20202;-68
2022/01/30 07:29:05;;;;;;;7.57;2.17;;;7.20;99.90;;;;;;5065322;28;20197;-68
2022/01/30 07:31:32;;;;;;;10.13;1.90;;;7.10;99.90;;;;;;5067088;28;20198;-70
2022/01/30 07:34:00;;;;;;;7.30;2.13;;;7.20;99.90;;;;;;5068467;28;20263;-71
2022/01/30 07:36:28;;;;;;;11.47;1.93;;;7.30;99.90;;;;;;5069230;28;20209;-75
2022/01/30 07:38:55;;;;;;;8.30;1.60;;;7.30;99.90;;;;;;5065443;28;20615;-70
2022/01/30 07:41:22;;;;;;;8.07;2.03;;;7.20;99.90;;;;;;5058167;28;20195;-71
2022/01/30 07:43:49;;;;;;;7.37;1.90;;;7.20;99.90;;;;;;5066746;28;20241;-70
2022/01/30 07:46:16;;;;;;;8.07;1.70;;;7.20;99.90;;;;;;5065753;28;20662;-70
2022/01/30 07:48:43;;;;;;;7.73;1.60;;;7.20;99.90;;;;;;5065976;28;20205;-71
2022/01/30 07:51:10;;;;;;;5.67;1.57;;;7.20;99.90;;;;;;5066739;28;20196;-73
2022/01/30 07:53:36;;;;;;;8.23;2.10;;;7.20;99.90;;;;;;5066050;28;20198;-71
2022/01/30 07:56:03;;;;;;;6.43;1.80;;;7.30;99.90;;;;;;5068206;28;20681;-71
2022/01/30 07:58:30;;;;;;;6.57;2.03;;;7.40;99.90;;;;;;5065549;28;20230;-70
2022/01/30 08:00:57;;;;;;;10.57;2.03;;;7.30;99.90;;;;;;5057889;28;20196;-70
2022/01/30 08:03:23;;;;;;;9.10;1.97;;;7.30;99.90;;;;;;5063567;28;20650;-70
2022/01/30 08:05:51;;;;;;;5.20;1.47;;;7.30;99.90;;;;;;5064346;28;20202;-70
2022/01/30 08:08:17;;;;;;;6.10;1.23;;;7.30;99.90;;;;;;5064872;28;20564;-71
2022/01/30 08:10:44;;;;;;;10.00;1.60;;;7.40;99.90;;;;;;5066565;28;20205;-70
2022/01/30 08:13:10;;;;;;;8.87;1.87;;;7.40;99.90;;;;;;5057589;28;20265;-70
2022/01/30 08:15:37;;;;;;;8.00;1.73;;;7.40;99.90;;;;;;5064210;28;20219;-71
2022/01/30 08:18:04;;;;;;;8.27;2.07;;;7.40;99.90;;;;;;5061075;28;20225;-71
2022/01/30 08:20:31;;;;;;;9.63;1.80;;;7.40;99.90;;;;;;5066379;28;20277;-70
2022/01/30 08:23:00;;;;;;;5.37;1.87;;;7.40;99.90;;;;;;5058604;28;20203;-70
2022/01/30 08:25:27;;;;;;;6.40;1.70;;;7.40;99.90;;;;;;5058476;28;20221;-70
2022/01/30 08:27:54;;;;;;;10.70;2.13;;;7.50;99.90;;;;;;5068530;28;20188;-71
2022/01/30 08:30:21;;;;;;;8.90;1.80;;;7.50;99.90;;;;;;5060205;28;20200;-73
2022/01/30 08:32:49;;;;;;;8.40;1.60;;;7.50;99.90;;;;;;5065019;28;20200;-71
2022/01/30 08:35:17;;;;;;;7.27;1.57;;;7.50;99.90;;;;;;5061929;28;21353;-70
2022/01/30 08:37:45;;;;;;;8.77;1.77;;;7.40;99.90;;;;;;5065006;28;20216;-70
2022/01/30 08:40:17;;;;;;;9.50;2.20;;;7.50;99.90;;;;;;5068986;28;20247;-70
2022/01/30 08:42:45;;;;;;;10.23;2.00;;;7.50;99.90;;;;;;5065202;28;20202;-70
2022/01/30 08:45:13;;;;;;;10.90;1.90;;;7.50;99.90;;;;;;5064286;28;20214;-71
2022/01/30 08:47:42;;;;;;;7.90;1.60;;;7.60;99.90;;;;;;5065542;28;20655;-71
2022/01/30 08:50:10;;;;;;;6.73;2.00;;;7.60;99.90;;;;;;5068439;28;20546;-70
2022/01/30 08:52:36;;;;;;;8.03;1.80;;;7.60;99.90;;;;;;5060015;28;20194;-70
2022/01/30 08:55:05;;;;;;;8.93;1.60;;;7.60;99.90;;;;;;5061934;28;20480;-71
2022/01/30 08:57:32;;;;;;;7.70;1.53;;;7.60;99.90;;;;;;5066804;28;20225;-71
2022/01/30 08:59:59;;;;;;;5.73;1.57;;;7.60;99.90;;;;;;5066302;28;20194;-72
2022/01/30 09:02:26;;;;;;;4.57;1.70;;;7.60;99.90;;;;;;5062790;28;20697;-70
2022/01/30 09:04:53;;;;;;;6.60;2.10;;;7.70;99.90;;;;;;5064487;28;20233;-71
2022/01/30 09:07:20;;;;;;;7.33;1.43;;;7.80;99.90;;;;;;5059976;28;20198;-71
2022/01/30 09:09:47;;;;;;;7.13;1.43;;;7.80;99.90;;;;;;5065686;28;20196;-70
2022/01/30 09:12:14;;;;;;;6.57;1.43;;;7.80;99.90;;;;;;5062286;28;20225;-68
2022/01/30 09:14:42;;;;;;;5.50;1.87;;;7.80;99.90;;;;;;5066672;28;20219;-70
2022/01/30 09:17:14;;;;;;;8.17;1.73;;;7.90;99.90;;;;;;5066178;28;20214;-74
2022/01/30 09:19:46;;;;;;;4.80;1.50;;;8.00;99.90;;;;;;5066358;28;20248;-71
2022/01/30 09:22:16;;;;;;;9.63;1.60;;;8.10;99.90;;;;;;5063912;28;20477;-71
2022/01/30 09:24:44;;;;;;;9.60;1.30;;;8.20;99.90;;;;;;5067466;28;20214;-70
2022/01/30 09:27:11;;;;;;;9.90;2.00;;;8.20;99.90;;;;;;5063208;28;20204;-73
2022/01/30 09:29:39;;;;;;;7.67;1.60;;;8.10;99.90;;;;;;5081166;28;20197;-68
2022/01/30 09:32:07;;;;;;;8.80;1.70;;;8.20;99.90;;;;;;5061282;28;20205;-68
2022/01/30 09:34:34;;;;;;;8.90;2.10;;;8.00;99.90;;;;;;5066652;28;20223;-70
2022/01/30 09:37:02;;;;;;;6.43;1.57;;;7.90;99.90;;;;;;5065173;28;20204;-70
2022/01/30 09:39:29;;;;;;;10.30;2.13;;;8.00;99.90;;;;;;5067904;28;20804;-71
2022/01/30 09:41:56;;;;;;;9.90;1.80;;;8.20;99.90;;;;;;5055556;28;20559;-72
2022/01/30 09:44:23;;;;;;;7.57;1.80;;;8.20;99.90;;;;;;5063508;28;20226;-71
2022/01/30 09:46:50;;;;;;;6.53;1.73;;;8.20;99.90;;;;;;5066208;28;20598;-69
2022/01/30 09:49:23;;;;;;;10.50;1.73;;;8.20;99.90;;;;;;5066747;28;20199;-70
2022/01/30 09:51:51;;;;;;;10.77;1.77;;;8.40;99.90;;;;;;5065047;28;20207;-69
2022/01/30 09:54:19;;;;;;;8.03;1.90;;;8.50;99.90;;;;;;5074513;28;20300;-69
2022/01/30 09:56:46;;;;;;;9.20;2.10;;;8.50;99.90;;;;;;5067845;28;20223;-70
2022/01/30 09:59:12;;;;;;;7.73;1.50;;;8.60;99.90;;;;;;5065310;28;20226;-69
2022/01/30 10:01:39;;;;;;;5.63;1.33;;;8.60;99.90;;;;;;5077314;28;20198;-71
2022/01/30 10:04:06;;;;;;;9.13;1.70;;;8.80;99.90;;;;;;5055935;28;20546;-67
2022/01/30 10:06:59;;;;;;;8.07;2.10;;;8.80;99.90;;;;;;5061178;28;20224;-70
2022/01/30 10:09:29;;;;;;;5.07;1.50;;;8.80;99.90;;;;;;5068645;28;20199;-71
2022/01/30 10:12:28;;;;;;;13.17;1.97;;;8.60;99.90;;;;;;5070368;28;20666;-70
2022/01/30 10:15:07;;;;;;;6.33;1.77;;;8.50;99.90;;;;;;5063749;28;20564;-70
2022/01/30 10:17:39;;;;;;;8.37;1.63;;;8.70;99.90;;;;;;5069465;28;20233;-70
2022/01/30 10:20:26;;;;;;;10.43;2.00;;;8.70;99.90;;;;;;5060806;28;20625;-71
2022/01/30 10:22:56;;;;;;;9.77;1.90;;;8.70;99.90;;;;;;5070534;28;20190;-67
2022/01/30 10:25:35;;;;;;;6.27;1.47;;;8.70;99.90;;;;;;5063665;28;20259;-67
2022/01/30 10:28:14;;;;;;;8.73;1.87;;;8.70;99.90;;;;;;5074875;28;20201;-67
2022/01/30 10:31:05;;;;;;;9.70;1.90;;;8.60;99.90;;;;;;5066217;28;20768;-67
2022/01/30 10:33:50;;;;;;;9.20;1.73;;;8.50;99.90;;;;;;5058613;28;20197;-67
2022/01/30 10:36:30;;;;;;;5.93;1.83;;;8.50;99.90;;;;;;5069572;28;20203;-67
2022/01/30 10:39:17;;;;;;;5.83;1.37;;;8.40;99.90;;;;;;5069126;28;20220;-70
2022/01/30 10:41:54;;;;;;;6.30;1.37;;;8.60;99.90;;;;;;5066300;28;20211;-72
2022/01/30 10:44:20;;;;;;;7.60;1.63;;;8.40;99.90;;;;;;5077638;28;20577;-70
2022/01/30 10:46:49;;;;;;;5.17;1.20;;;8.40;99.90;;;;;;5066493;28;20193;-70
2022/01/30 10:49:18;;;;;;;8.37;1.50;;;8.50;99.90;;;;;;5067347;28;20192;-69
2022/01/30 10:51:59;;;;;;;7.13;1.50;;;8.50;99.90;;;;;;5066892;28;20212;-70
2022/01/30 10:54:32;;;;;;;8.50;2.10;;;8.50;99.90;;;;;;5070537;28;20243;-70
2022/01/30 10:57:02;;;;;;;8.77;1.30;;;8.60;99.90;;;;;;5067767;28;20201;-72
2022/01/30 10:59:29;;;;;;;10.33;1.77;;;8.50;99.90;;;;;;5061858;28;21905;-69
2022/01/30 11:02:13;;;;;;;6.93;1.57;;;8.50;99.90;;;;;;5067426;28;20192;-70
2022/01/30 11:04:40;;;;;;;7.77;1.50;;;8.70;99.90;;;;;;5062970;28;20214;-70
2022/01/30 11:07:08;;;;;;;8.43;1.90;;;8.60;99.90;;;;;;5069039;28;20189;-72
2022/01/30 11:09:40;;;;;;;7.67;1.60;;;8.80;99.90;;;;;;5060515;28;20192;-70
2022/01/30 11:12:11;;;;;;;7.30;1.50;;;8.90;99.90;;;;;;5063279;28;20206;-70
2022/01/30 11:14:51;;;;;;;13.30;1.83;;;9.20;99.90;;;;;;5063328;28;20233;-71
2022/01/30 11:17:19;;;;;;;7.40;1.80;;;9.20;99.90;;;;;;5053402;28;20199;-70
2022/01/30 11:19:52;;;;;;;7.33;1.70;;;9.10;99.90;;;;;;5064400;28;20457;-70
2022/01/30 11:22:21;;;;;;;10.47;1.80;;;9.10;99.90;;;;;;5061471;28;20191;-72
2022/01/30 11:24:54;;;;;;;8.67;2.00;;;9.20;99.90;;;;;;5068754;28;20214;-72
2022/01/30 11:27:23;;;;;;;10.80;2.03;;;9.30;99.90;;;;;;5058708;28;20202;-70
2022/01/30 11:29:51;;;;;;;10.83;2.43;;;9.30;99.90;;;;;;5062465;28;20284;-71
2022/01/30 11:32:22;;;;;;;10.43;2.20;;;9.20;99.90;;;;;;5063396;28;20666;-71
2022/01/30 11:34:52;;;;;;;11.10;2.67;;;9.30;99.90;;;;;;5056037;28;20261;-71
2022/01/30 11:37:26;;;;;;;14.13;2.37;;;9.40;99.90;;;;;;5067849;28;20198;-71
2022/01/30 11:39:53;;;;;;;18.17;2.90;;;9.40;99.90;;;;;;5058164;28;20205;-71
2022/01/30 11:42:21;;;;;;;12.00;2.50;;;9.40;99.90;;;;;;5064280;28;20202;-71
2022/01/30 11:44:50;;;;;;;12.90;2.33;;;9.30;99.90;;;;;;5061331;28;20327;-71
2022/01/30 11:47:44;;;;;;;9.60;2.17;;;9.10;99.90;;;;;;5060495;28;20208;-71
2022/01/30 11:50:12;;;;;;;14.37;2.20;;;9.10;99.90;;;;;;5059282;28;20202;-71
2022/01/30 11:52:54;;;;;;;11.27;2.43;;;8.80;99.90;;;;;;5066563;28;20214;-69
2022/01/30 11:55:49;;;;;;;13.80;2.37;;;8.60;99.90;;;;;;5058285;28;20231;-69
2022/01/30 11:58:35;;;;;;;8.13;2.33;;;8.40;99.90;;;;;;5065561;28;20213;-69
2022/01/30 12:01:26;;;;;;;12.17;2.80;;;8.40;99.90;;;;;;5065314;28;20197;-69
2022/01/30 12:04:00;;;;;;;13.87;2.23;;;8.50;99.90;;;;;;5076147;28;20600;-69
2022/01/30 12:06:30;;;;;;;8.70;2.73;;;8.50;99.90;;;;;;5056093;28;20249;-70
2022/01/30 12:09:23;;;;;;;11.80;2.27;;;8.60;99.90;;;;;;5067658;28;20205;-70
2022/01/30 12:11:58;;;;;;;15.77;2.20;;;8.50;99.90;;;;;;5064329;28;20198;-69
2022/01/30 12:14:29;;;;;;;17.17;2.87;;;8.50;99.90;;;;;;5057836;28;20258;-68
2022/01/30 12:17:00;;;;;;;12.07;2.57;;;8.40;99.90;;;;;;5065132;28;20193;-69
2022/01/30 12:19:47;;;;;;;14.07;2.40;;;8.60;99.90;;;;;;5065693;28;20225;-69
2022/01/30 12:22:20;;;;;;;9.47;2.47;;;8.70;99.90;;;;;;5061847;28;20268;-68
2022/01/30 12:24:49;;;;;;;12.50;2.13;;;8.90;99.90;;;;;;5067558;28;20263;-69
2022/01/30 12:27:16;;;;;;;12.23;2.20;;;9.00;99.90;;;;;;5066199;28;20189;-71
2022/01/30 12:29:51;;;;;;;11.37;2.10;;;9.00;99.90;;;;;;5062758;28;20206;-71
2022/01/30 12:32:24;;;;;;;14.17;2.50;;;9.10;99.90;;;;;;5064811;28;20204;-71
2022/01/30 12:34:57;;;;;;;8.53;2.20;;;9.30;99.90;;;;;;5067714;28;20701;-68
2022/01/30 12:37:28;;;;;;;9.73;2.67;;;9.30;99.90;;;;;;5063734;28;20209;-68
2022/01/30 12:39:57;;;;;;;10.77;2.33;;;9.50;99.90;;;;;;5061463;28;20219;-68
2022/01/30 12:42:26;;;;;;;8.60;2.20;;;9.40;99.90;;;;;;5060969;28;20557;-68
2022/01/30 12:44:59;;;;;;;8.93;2.30;;;9.50;99.90;;;;;;5066085;28;20218;-69
2022/01/30 12:47:26;;;;;;;10.73;2.13;;;9.70;99.90;;;;;;5065980;28;20208;-71
2022/01/30 12:49:57;;;;;;;7.30;2.00;;;10.00;99.90;;;;;;5063513;28;20198;-69
2022/01/30 12:54:59;;;;;;;11.27;1.87;;;9.50;99.90;;;;;;5065469;28;20215;-67
2022/01/30 12:57:33;;;;;;;9.40;1.77;;;9.30;99.90;;;;;;5066024;28;20193;-68
2022/01/30 13:00:01;;;;;;;12.07;2.33;;;9.20;99.90;;;;;;5064001;28;20219;-67
2022/01/30 13:02:29;;;;;;;11.03;2.13;;;9.20;99.90;;;;;;5061915;28;20202;-67
2022/01/30 13:05:10;;;;;;;13.03;2.40;;;9.30;99.90;;;;;;5062538;28;20299;-69
2022/01/30 13:07:38;;;;;;;18.03;2.33;;;9.20;99.90;;;;;;5060562;28;20204;-69
2022/01/30 13:10:13;;;;;;;11.93;2.10;;;9.10;99.90;;;;;;5055153;28;20226;-69
2022/01/30 13:12:43;;;;;;;12.50;2.37;;;9.00;99.90;;;;;;5061734;28;20200;-69
2022/01/30 13:15:13;;;;;;;12.90;2.77;;;9.20;99.90;;;;;;5061168;28;20217;-69
2022/01/30 13:17:40;;;;;;;13.30;2.53;;;9.30;99.90;;;;;;5063646;28;20193;-69
2022/01/30 13:20:11;;;;;;;17.33;2.83;;;9.30;99.90;;;;;;5065192;28;20699;-69
2022/01/30 13:22:43;;;;;;;13.77;2.10;;;9.40;99.90;;;;;;5061780;28;20196;-69
2022/01/30 13:25:15;;;;;;;7.40;2.43;;;9.10;99.90;;;;;;5055447;28;20813;-69
2022/01/30 13:27:47;;;;;;;10.80;2.63;;;8.80;99.90;;;;;;5081564;28;20205;-67
2022/01/30 13:30:25;;;;;;;11.90;2.33;;;8.80;99.90;;;;;;5058082;28;20201;-67
2022/01/30 13:32:54;;;;;;;9.07;2.30;;;8.80;99.90;;;;;;5064039;28;20199;-68
2022/01/30 13:35:23;;;;;;;12.23;2.13;;;8.70;99.90;;;;;;5059659;28;20230;-68
2022/01/30 13:37:51;;;;;;;9.50;2.20;;;8.80;99.90;;;;;;5060515;28;20389;-69
2022/01/30 13:40:28;;;;;;;16.43;2.83;;;8.90;99.90;;;;;;5054835;28;20220;-69
2022/01/30 13:43:03;;;;;;;10.00;1.97;;;8.90;99.90;;;;;;5057724;28;20190;-69
2022/01/30 13:48:07;;;;;;;11.90;2.33;;;8.90;99.90;;;;;;5060567;28;20196;-69
2022/01/30 13:50:52;;;;;;;5.37;1.83;;;8.80;99.90;;;;;;5053100;28;20206;-69
2022/01/30 13:53:19;;;;;;;10.33;2.17;;;8.70;99.90;;;;;;5060984;28;20215;-70
2022/01/30 13:56:06;;;;;;;15.13;2.60;;;8.70;99.90;;;;;;5052577;28;20293;-73
2022/01/30 13:58:39;;;;;;;16.80;2.33;;;8.80;99.90;;;;;;5057765;28;20210;-72
2022/01/30 14:01:19;;;;;;;13.10;2.03;;;8.70;99.90;;;;;;5059617;28;20627;-70
2022/01/30 14:03:48;;;;;;;9.20;2.07;;;8.80;99.90;;;;;;5055626;28;20256;-68